Mekkah, Arab Saudi

08:46 AM AST on Desember 20, 2014 (GMT +0300)
Makkah | Change Station
CLOSE
Current Station
Airport
Location: Makkah,
Elevation: 1211 ft
Nearby Weather Stations

Elev 1211 ft 21.44 °N, 40.00 °E | Updated 46 minutes ago

Clear
Cerah
75 °F
Feels Like 75 °F
N
0
Angin Variable Angin from Arah Utara

Siang Ini
High -- | Low -- °F
--% Chance of Precip.
Yesterday
High -- | Low -- °F
Precip. -- Inch
6:53 AM 5:43 PM
Waning Crescent, 4% visible
Tekanan 30.01 Inch
Jarak Pandang -9999.0 Mil
Awan
Titik Embun 70 °F
Kelembaban 83%
Rainfall 0.00 Inch
Snow Depth Not available.
UV Not available.
Pollen Not available.
Air Quality Not available.
Flu Activity Not available.
METAR OEMK 200500Z 00000KT CAVOK 24/21 Q1016

More Conditions Fewer Conditions

Tekanan 30.01 Inch
Jarak Pandang -9999.0 Mil
Awan
Titik Embun 70 °F
Kelembaban 83%
Rainfall 0.00 Inch
Snow Depth Not available.
UV Not available.
Pollen Not available.
Air Quality Not available.
Flu Activity Not available.
METAR OEMK 200500Z 00000KT CAVOK 24/21 Q1016

More Conditions Fewer Conditions

10-Day Weather Forecast

Almanac

Astronomi

Dec. 20, 2014 Rise Set
Actual Time
Civil Twilight
Nautical Twilight
Astronomical Twilight
Moon
Length Of Visible Light
Lama Satu Hari
Tomorrow will be .
, % of the Moon is Illuminated

Today's Extremes

Country Highs Country Lows

Community

WunderPhotos

Upload Photos

1,779,141 photos uploaded!

WunderBlogs® & News

Nearby

Air Quality

  Air Quality AQ Index Pollutant
Not available.

Snow Depth

Station Depth Elevation

Earthquake Activity

City Distance Mag. Time & Date
Minimum magnitude displayed is 2.5.

Coastal Water Temperatures

Lokasi Temperatur

Nearby Weather Stations